• Join FlightAware (Why Join?)
  • Login
  • US Flag 
08:41AM EDT


 

Airport Tracker/Info


-or-


 

Live Flight TrackerFlight Track Log ✈ SKW5510 ✈ 21-Apr-2013 ✈ KDEN - KTUL

Flight Track Log - Related Links

Times and Time Zones

All times are in EDT time to prevent confusion due to time zone crossing. See the SKW5510 flight status page for this flight to view local times or setup timezone preferences in your user account.

Time Position Orientation Groundspeed Altitude Reporting Facility
EDT Latitude Longitude Course Direction KTS MPH feet Rate Location/Type
04:18PM 39.8667 -104.5833 90° East 197 227 7,100  Level Denver TRACON
04:19PM 39.8500 -104.5000 105° East 238 274 9,200 2,040 Climbing Denver TRACON
04:20PM 39.7857 -104.1734 101° East  Level FlightAware Approximate
04:20PM 39.8167 -104.4089 115° Southeast 279 321 11,300  Level Denver Center
04:21PM 39.7667 -104.0089 90° East  Level FlightAware Approximate
04:21PM 39.8072 -104.2928 96° East 304 350 13,600  Level Denver Center
04:22PM 39.7500 -103.8465 90° East  Level FlightAware Approximate
04:22PM 39.7917 -104.1756 100° East 330 380 15,200  Level Denver Center
04:23PM 39.7333 -103.6831 90° East  Level FlightAware Approximate
04:23PM 39.7764 -104.0481 99° East 357 411 17,100  Level Denver Center
04:24PM 39.7617 -103.9069 98° East 365 420 19,100 1,680 Climbing Denver Center
04:25PM 39.7458 -103.7747 99° East 372 428 20,600 1,380 Climbing Denver Center
04:26PM 39.7328 -103.6289 97° East 376 433 22,000 1,260 Climbing Denver Center
04:27PM 39.7217 -103.4828 96° East 398 458 23,200 1,140 Climbing Denver Center
04:28PM 39.7100 -103.3336 96° East 410 472 24,400 1,020 Climbing Denver Center
04:29PM 39.6969 -103.1833 96° East 415 478 25,400 960 Climbing Denver Center
04:30PM 39.6847 -103.0283 96° East 425 489 26,500 1,020 Climbing Denver Center
04:31PM 39.6703 -102.8728 97° East 430 495 27,500 1,020 Climbing Denver Center
04:32PM 39.6572 -102.7006 96° East 431 496 28,600 960 Climbing Denver Center
04:33PM 39.6433 -102.5528 97° East 431 496 29,600 720 Climbing Denver Center
04:34PM 39.6286 -102.3803 96° East 430 495 30,200 480 Climbing Denver Center
04:35PM 39.6147 -102.2303 97° East 439 505 30,700 480 Climbing Denver Center
04:36PM 39.6011 -102.0772 97° East 447 514 31,200 480 Climbing Denver Center
04:37PM 39.5853 -101.8975 96° East 451 519 31,800 480 Climbing Denver Center
04:38PM 39.5728 -101.7428 96° East 451 519 32,300 480 Climbing Denver Center
04:39PM 39.5583 -101.5600 96° East 457 526 32,900 300 Climbing Denver Center
04:40PM 39.5361 -101.4053 101° East 460 529 33,000  Climbing Denver Center
04:41PM 39.4669 -101.2403 118° Southeast 468 539 33,000  Level Denver Center
04:42PM 39.4022 -101.0997 121° Southeast 474 545 33,000  Level Denver Center
04:43PM 39.3267 -100.9364 121° Southeast 475 547 33,000  Level Denver Center
04:44PM 39.2617 -100.7942 121° Southeast 480 552 33,000  Level Denver Center
04:45PM 39.1850 -100.6328 121° Southeast 476 548 33,000  Level Denver Center
04:46PM 39.1186 -100.4903 121° Southeast 482 555 33,000  Level Denver Center
04:47PM 39.0525 -100.3500 121° Southeast 480 552 33,000  Level Denver Center
04:48PM 38.9756 -100.1875 121° Southeast 480 552 33,000  Level Denver Center
04:49PM 38.9008 -100.0314 122° Southeast 481 554 33,000  Level Denver Center
04:51PM 38.8339 -99.8928 122° Southeast 477 549 33,000  Level Denver Center
04:52PM 38.7564 -99.7314 122° Southeast 476 548 33,000  Level Denver Center
04:53PM 38.6897 -99.5947 122° Southeast 473 544 33,000  Level Denver Center
04:54PM 38.6244 -99.4597 122° Southeast 467 537 33,000  Level Denver Center
04:54PM 38.5717 -99.3519 122° Southeast 469 540 33,000  Level Kansas City Center
04:55PM 38.5031 -99.2119 122° Southeast 466 536 33,000  Level Kansas City Center
04:57PM 38.4206 -99.0450 122° Southeast 464 534 33,000  Level Kansas City Center
04:58PM 38.3525 -98.9067 122° Southeast 462 532 33,000  Level Kansas City Center
04:59PM 38.2858 -98.7675 121° Southeast 462 532 33,000  Level Kansas City Center
05:00PM 38.2172 -98.6294 122° Southeast 462 532 33,000  Level Kansas City Center
05:01PM 38.1472 -98.4925 123° Southeast 462 532 33,000  Level Kansas City Center
05:02PM 38.0792 -98.3561 122° Southeast 460 529 33,000  Level Kansas City Center
05:03PM 37.9914 -98.1989 125° Southeast 457 526 33,000  Level Kansas City Center
05:04PM 37.8981 -98.0703 133° Southeast 457 526 33,000  Level Kansas City Center
05:05PM 37.8111 -97.9506 133° Southeast 460 529 33,000  Level Kansas City Center
05:06PM 37.7250 -97.8303 132° Southeast 460 529 33,000  Level Kansas City Center
05:07PM 37.6372 -97.7108 133° Southeast 461 531 33,000  Level Kansas City Center
05:08PM 37.5486 -97.5869 132° Southeast 463 533 33,000  Level Kansas City Center
05:09PM 37.4617 -97.4669 132° Southeast 464 534 33,000  Level Kansas City Center
05:10PM 37.3731 -97.3472 133° Southeast 467 537 33,000 -840 Level Kansas City Center
05:11PM 37.2822 -97.2294 134° Southeast 470 541 31,400 -2,160 Descending Kansas City Center
05:12PM 37.1919 -97.1072 133° Southeast 475 547 28,700 -2,880 Descending Kansas City Center
05:13PM 37.0872 -96.9658 133° Southeast 463 533 25,400 -2,880 Descending Kansas City Center
05:14PM 37.0025 -96.8536 133° Southeast 447 514 22,700 -2,580 Descending Kansas City Center
05:15PM 36.9272 -96.7517 133° Southeast 423 487 20,200 -2,520 Descending Kansas City Center
05:16PM 36.8503 -96.6492 133° Southeast 409 471 17,600 -2,880 Descending Kansas City Center
05:17PM 36.7664 -96.5319 132° Southeast 383 441 14,300 -3,000 Descending Kansas City Center
05:18PM 36.7103 -96.4600 134° Southeast 367 422 12,300 -2,700 Descending Kansas City Center
05:18PM 36.6961 -96.4397 131° Southeast 373 429 11,600 -1,800 Descending Kansas City Center
05:19PM 36.6314 -96.3536 133° Southeast 351 404 10,000 -1,440 Descending Kansas City Center
05:20PM 36.5792 -96.2811 132° Southeast 294 338 8,600 -1,560 Descending Kansas City Center
05:21PM 36.5283 -96.2094 131° Southeast 269 310 7,000 -1,860 Descending Kansas City Center
05:22PM 36.4856 -96.1475 131° Southeast 256 295 5,300 -1,620 Descending Kansas City Center
05:22PM 36.4831 -96.1428 123° Southeast 265 305 5,200 -1,320 Descending Kansas City Center
05:23PM 36.4453 -96.0928 133° Southeast 252 290 4,200 -1,620 Descending Kansas City Center
05:23PM 36.4272 -96.0650 129° Southeast 256 295 3,600 -960 Descending Kansas City Center
05:24PM 36.3975 -96.0211 130° Southeast 249 287 3,200 -540 Descending Kansas City Center
05:24PM 36.3825 -96.0017 134° Southeast 251 289 3,100 -420 Descending Kansas City Center
05:25PM 36.3569 -95.9642 130° Southeast 217 250 2,800 -480 Descending Kansas City Center